sensor_id;sensor_type;location;lat;lon;timestamp;temperature;humidity
22838;DHT22;11585;51.450;-0.240;2023-03-13T00:00:56;12.40;99.90
22838;DHT22;11585;51.450;-0.240;2023-03-13T00:03:22;12.40;99.90
22838;DHT22;11585;51.450;-0.240;2023-03-13T00:05:48;12.40;99.90
22838;DHT22;11585;51.450;-0.240;2023-03-13T00:08:14;12.40;99.90
22838;DHT22;11585;51.450;-0.240;2023-03-13T00:10:40;12.50;99.90
22838;DHT22;11585;51.450;-0.240;2023-03-13T00:13:08;12.40;99.90
22838;DHT22;11585;51.450;-0.240;2023-03-13T00:15:34;12.50;99.90
22838;DHT22;11585;51.450;-0.240;2023-03-13T00:18:00;12.50;99.90
22838;DHT22;11585;51.450;-0.240;2023-03-13T00:20:25;12.40;99.90
22838;DHT22;11585;51.450;-0.240;2023-03-13T00:22:51;12.50;99.90
22838;DHT22;11585;51.450;-0.240;2023-03-13T00:25:17;12.50;99.90
22838;DHT22;11585;51.450;-0.240;2023-03-13T00:27:42;12.50;99.90
22838;DHT22;11585;51.450;-0.240;2023-03-13T00:30:08;12.50;99.90
22838;DHT22;11585;51.450;-0.240;2023-03-13T00:32:42;12.60;99.90
22838;DHT22;11585;51.450;-0.240;2023-03-13T00:35:08;12.60;99.90
22838;DHT22;11585;51.450;-0.240;2023-03-13T00:37:34;12.60;99.90
22838;DHT22;11585;51.450;-0.240;2023-03-13T00:39:59;12.60;99.90
22838;DHT22;11585;51.450;-0.240;2023-03-13T00:42:28;12.70;99.90
22838;DHT22;11585;51.450;-0.240;2023-03-13T00:44:54;12.60;99.90
22838;DHT22;11585;51.450;-0.240;2023-03-13T00:47:19;12.80;99.90
22838;DHT22;11585;51.450;-0.240;2023-03-13T00:49:45;12.60;99.90
22838;DHT22;11585;51.450;-0.240;2023-03-13T00:52:10;12.70;99.90
22838;DHT22;11585;51.450;-0.240;2023-03-13T00:54:38;12.70;99.90
22838;DHT22;11585;51.450;-0.240;2023-03-13T00:57:04;12.60;99.90
22838;DHT22;11585;51.450;-0.240;2023-03-13T00:59:29;12.70;99.90
22838;DHT22;11585;51.450;-0.240;2023-03-13T01:01:55;12.70;99.90
22838;DHT22;11585;51.450;-0.240;2023-03-13T01:04:21;12.60;99.90
22838;DHT22;11585;51.450;-0.240;2023-03-13T01:06:46;12.70;99.90
22838;DHT22;11585;51.450;-0.240;2023-03-13T01:09:14;12.70;99.90
22838;DHT22;11585;51.450;-0.240;2023-03-13T01:11:41;12.70;99.90
22838;DHT22;11585;51.450;-0.240;2023-03-13T01:14:13;12.70;99.90
22838;DHT22;11585;51.450;-0.240;2023-03-13T01:16:39;12.70;99.90
22838;DHT22;11585;51.450;-0.240;2023-03-13T01:19:08;12.70;99.90
22838;DHT22;11585;51.450;-0.240;2023-03-13T01:21:34;12.80;99.90
22838;DHT22;11585;51.450;-0.240;2023-03-13T01:27:03;12.80;99.90
22838;DHT22;11585;51.450;-0.240;2023-03-13T01:29:29;12.80;99.90
22838;DHT22;11585;51.450;-0.240;2023-03-13T01:31:54;12.80;99.90
22838;DHT22;11585;51.450;-0.240;2023-03-13T01:37:42;12.80;99.90
22838;DHT22;11585;51.450;-0.240;2023-03-13T01:40:08;12.70;99.90
22838;DHT22;11585;51.450;-0.240;2023-03-13T01:49:31;12.80;99.90
22838;DHT22;11585;51.450;-0.240;2023-03-13T01:52:02;12.80;99.90
22838;DHT22;11585;51.450;-0.240;2023-03-13T01:55:02;12.80;99.90
22838;DHT22;11585;51.450;-0.240;2023-03-13T01:57:33;12.80;99.90
22838;DHT22;11585;51.450;-0.240;2023-03-13T02:00:19;12.80;99.90
22838;DHT22;11585;51.450;-0.240;2023-03-13T02:06:08;12.80;99.90
22838;DHT22;11585;51.450;-0.240;2023-03-13T02:08:41;12.80;99.90
22838;DHT22;11585;51.450;-0.240;2023-03-13T02:11:18;12.80;99.90
22838;DHT22;11585;51.450;-0.240;2023-03-13T02:13:47;12.80;99.90
22838;DHT22;11585;51.450;-0.240;2023-03-13T02:16:15;12.90;99.90
22838;DHT22;11585;51.450;-0.240;2023-03-13T02:18:41;12.90;99.90
22838;DHT22;11585;51.450;-0.240;2023-03-13T02:21:29;13.10;99.90
22838;DHT22;11585;51.450;-0.240;2023-03-13T02:24:06;13.10;99.90
22838;DHT22;11585;51.450;-0.240;2023-03-13T02:26:33;12.90;99.90
22838;DHT22;11585;51.450;-0.240;2023-03-13T02:28:59;12.90;99.90
22838;DHT22;11585;51.450;-0.240;2023-03-13T02:31:25;12.90;99.90
22838;DHT22;11585;51.450;-0.240;2023-03-13T02:33:52;12.90;99.90
22838;DHT22;11585;51.450;-0.240;2023-03-13T02:36:19;13.40;99.90
22838;DHT22;11585;51.450;-0.240;2023-03-13T02:38:52;13.00;99.90
22838;DHT22;11585;51.450;-0.240;2023-03-13T02:41:20;12.90;99.90
22838;DHT22;11585;51.450;-0.240;2023-03-13T02:43:49;12.90;99.90
22838;DHT22;11585;51.450;-0.240;2023-03-13T02:46:17;13.00;99.90
22838;DHT22;11585;51.450;-0.240;2023-03-13T02:48:46;13.10;99.90
22838;DHT22;11585;51.450;-0.240;2023-03-13T02:51:40;13.00;99.90
22838;DHT22;11585;51.450;-0.240;2023-03-13T02:54:11;13.00;99.90
22838;DHT22;11585;51.450;-0.240;2023-03-13T02:56:40;13.00;99.90
22838;DHT22;11585;51.450;-0.240;2023-03-13T02:59:06;13.00;99.90
22838;DHT22;11585;51.450;-0.240;2023-03-13T03:01:32;12.90;99.90
22838;DHT22;11585;51.450;-0.240;2023-03-13T03:10:26;13.00;99.90
22838;DHT22;11585;51.450;-0.240;2023-03-13T03:15:56;13.00;99.90
22838;DHT22;11585;51.450;-0.240;2023-03-13T03:18:21;12.90;99.90
22838;DHT22;11585;51.450;-0.240;2023-03-13T03:20:47;12.90;99.90
22838;DHT22;11585;51.450;-0.240;2023-03-13T03:23:14;13.00;99.90
22838;DHT22;11585;51.450;-0.240;2023-03-13T03:25:39;12.90;99.90
22838;DHT22;11585;51.450;-0.240;2023-03-13T03:28:05;12.90;99.90
22838;DHT22;11585;51.450;-0.240;2023-03-13T03:30:31;12.90;99.90
22838;DHT22;11585;51.450;-0.240;2023-03-13T03:39:25;12.90;99.90
22838;DHT22;11585;51.450;-0.240;2023-03-13T03:41:52;12.90;99.90
22838;DHT22;11585;51.450;-0.240;2023-03-13T03:44:38;12.90;99.90
22838;DHT22;11585;51.450;-0.240;2023-03-13T03:47:03;12.90;99.90
22838;DHT22;11585;51.450;-0.240;2023-03-13T03:49:29;12.80;99.90
22838;DHT22;11585;51.450;-0.240;2023-03-13T03:51:54;12.90;99.90
22838;DHT22;11585;51.450;-0.240;2023-03-13T03:57:42;12.80;99.90
22838;DHT22;11585;51.450;-0.240;2023-03-13T04:00:08;12.80;99.90
22838;DHT22;11585;51.450;-0.240;2023-03-13T04:02:38;12.80;99.90
22838;DHT22;11585;51.450;-0.240;2023-03-13T04:05:04;12.90;99.90
22838;DHT22;11585;51.450;-0.240;2023-03-13T04:07:30;12.80;99.90
22838;DHT22;11585;51.450;-0.240;2023-03-13T04:09:55;12.80;99.90
22838;DHT22;11585;51.450;-0.240;2023-03-13T04:12:21;12.80;99.90
22838;DHT22;11585;51.450;-0.240;2023-03-13T04:14:47;12.80;99.90
22838;DHT22;11585;51.450;-0.240;2023-03-13T04:17:12;12.80;99.90
22838;DHT22;11585;51.450;-0.240;2023-03-13T04:19:38;13.50;99.90
22838;DHT22;11585;51.450;-0.240;2023-03-13T04:22:04;12.80;99.90
22838;DHT22;11585;51.450;-0.240;2023-03-13T04:24:29;12.80;99.90
22838;DHT22;11585;51.450;-0.240;2023-03-13T04:26:55;12.80;99.90
22838;DHT22;11585;51.450;-0.240;2023-03-13T04:29:20;12.80;99.90
22838;DHT22;11585;51.450;-0.240;2023-03-13T04:31:46;12.80;99.90
22838;DHT22;11585;51.450;-0.240;2023-03-13T04:34:17;12.80;99.90
22838;DHT22;11585;51.450;-0.240;2023-03-13T04:36:43;12.90;99.90
22838;DHT22;11585;51.450;-0.240;2023-03-13T04:39:08;12.80;99.90
22838;DHT22;11585;51.450;-0.240;2023-03-13T04:41:34;12.90;99.90
22838;DHT22;11585;51.450;-0.240;2023-03-13T04:44:20;13.00;99.90
22838;DHT22;11585;51.450;-0.240;2023-03-13T04:46:45;12.80;99.90
22838;DHT22;11585;51.450;-0.240;2023-03-13T04:49:11;12.80;99.90
22838;DHT22;11585;51.450;-0.240;2023-03-13T04:51:38;12.80;99.90
22838;DHT22;11585;51.450;-0.240;2023-03-13T04:54:23;12.80;99.90
22838;DHT22;11585;51.450;-0.240;2023-03-13T04:56:48;12.80;99.90
22838;DHT22;11585;51.450;-0.240;2023-03-13T04:59:14;12.80;99.90
22838;DHT22;11585;51.450;-0.240;2023-03-13T05:01:41;12.80;99.90
22838;DHT22;11585;51.450;-0.240;2023-03-13T05:04:10;12.80;99.90
22838;DHT22;11585;51.450;-0.240;2023-03-13T05:06:36;12.90;99.90
22838;DHT22;11585;51.450;-0.240;2023-03-13T05:09:02;12.80;99.90
22838;DHT22;11585;51.450;-0.240;2023-03-13T05:11:28;12.80;99.90
22838;DHT22;11585;51.450;-0.240;2023-03-13T05:17:16;12.90;99.90
22838;DHT22;11585;51.450;-0.240;2023-03-13T05:19:42;12.80;99.90
22838;DHT22;11585;51.450;-0.240;2023-03-13T05:22:07;12.80;99.90
22838;DHT22;11585;51.450;-0.240;2023-03-13T05:27:55;12.90;99.90
22838;DHT22;11585;51.450;-0.240;2023-03-13T05:30:21;12.80;99.90
22838;DHT22;11585;51.450;-0.240;2023-03-13T05:32:47;12.80;99.90
22838;DHT22;11585;51.450;-0.240;2023-03-13T05:35:13;12.80;99.90
22838;DHT22;11585;51.450;-0.240;2023-03-13T05:37:39;12.90;99.90
22838;DHT22;11585;51.450;-0.240;2023-03-13T05:40:05;12.90;99.90
22838;DHT22;11585;51.450;-0.240;2023-03-13T05:45:52;12.90;99.90
22838;DHT22;11585;51.450;-0.240;2023-03-13T05:48:18;12.90;99.90
22838;DHT22;11585;51.450;-0.240;2023-03-13T05:50:44;12.80;99.90
22838;DHT22;11585;51.450;-0.240;2023-03-13T05:53:09;12.80;99.90
22838;DHT22;11585;51.450;-0.240;2023-03-13T05:55:35;12.90;99.90
22838;DHT22;11585;51.450;-0.240;2023-03-13T05:58:00;12.80;99.90
22838;DHT22;11585;51.450;-0.240;2023-03-13T06:00:26;12.90;99.90
22838;DHT22;11585;51.450;-0.240;2023-03-13T06:06:14;12.90;99.90
22838;DHT22;11585;51.450;-0.240;2023-03-13T06:08:39;12.90;99.90
22838;DHT22;11585;51.450;-0.240;2023-03-13T06:11:05;12.80;99.90
22838;DHT22;11585;51.450;-0.240;2023-03-13T06:16:19;12.90;99.90
22838;DHT22;11585;51.450;-0.240;2023-03-13T06:18:45;12.80;99.90
22838;DHT22;11585;51.450;-0.240;2023-03-13T06:21:11;12.90;99.90
22838;DHT22;11585;51.450;-0.240;2023-03-13T06:23:36;12.90;99.90
22838;DHT22;11585;51.450;-0.240;2023-03-13T06:26:02;12.90;99.90
22838;DHT22;11585;51.450;-0.240;2023-03-13T06:28:28;12.90;99.90
22838;DHT22;11585;51.450;-0.240;2023-03-13T06:30:54;12.80;99.90
22838;DHT22;11585;51.450;-0.240;2023-03-13T06:33:38;12.90;99.90
22838;DHT22;11585;51.450;-0.240;2023-03-13T06:36:04;12.90;99.90
22838;DHT22;11585;51.450;-0.240;2023-03-13T06:38:30;12.90;99.90
22838;DHT22;11585;51.450;-0.240;2023-03-13T06:40:56;12.90;99.90
22838;DHT22;11585;51.450;-0.240;2023-03-13T06:43:23;12.90;99.90
22838;DHT22;11585;51.450;-0.240;2023-03-13T06:45:49;12.90;99.90
22838;DHT22;11585;51.450;-0.240;2023-03-13T06:48:15;12.90;99.90
22838;DHT22;11585;51.450;-0.240;2023-03-13T06:50:41;12.90;99.90
22838;DHT22;11585;51.450;-0.240;2023-03-13T06:56:28;12.90;99.90
22838;DHT22;11585;51.450;-0.240;2023-03-13T06:58:54;12.80;99.90
22838;DHT22;11585;51.450;-0.240;2023-03-13T07:01:19;12.80;99.90
22838;DHT22;11585;51.450;-0.240;2023-03-13T07:03:47;12.90;99.90
22838;DHT22;11585;51.450;-0.240;2023-03-13T07:06:13;12.90;99.90
22838;DHT22;11585;51.450;-0.240;2023-03-13T07:08:38;12.90;99.90
22838;DHT22;11585;51.450;-0.240;2023-03-13T07:11:09;12.90;99.90
22838;DHT22;11585;51.450;-0.240;2023-03-13T07:13:39;12.90;99.90
22838;DHT22;11585;51.450;-0.240;2023-03-13T07:16:10;12.90;99.90
22838;DHT22;11585;51.450;-0.240;2023-03-13T07:18:37;12.90;99.90
22838;DHT22;11585;51.450;-0.240;2023-03-13T07:21:04;12.90;99.90
22838;DHT22;11585;51.450;-0.240;2023-03-13T07:26:33;12.90;99.90
22838;DHT22;11585;51.450;-0.240;2023-03-13T07:28:59;12.90;99.90
22838;DHT22;11585;51.450;-0.240;2023-03-13T07:31:24;12.90;99.90
22838;DHT22;11585;51.450;-0.240;2023-03-13T07:36:38;12.90;99.90
22838;DHT22;11585;51.450;-0.240;2023-03-13T07:39:06;12.90;99.90
22838;DHT22;11585;51.450;-0.240;2023-03-13T07:41:32;12.80;99.90
22838;DHT22;11585;51.450;-0.240;2023-03-13T07:43:59;12.90;99.90
22838;DHT22;11585;51.450;-0.240;2023-03-13T07:46:24;13.00;99.90
22838;DHT22;11585;51.450;-0.240;2023-03-13T07:48:51;12.80;99.90
22838;DHT22;11585;51.450;-0.240;2023-03-13T07:51:24;12.90;99.90
22838;DHT22;11585;51.450;-0.240;2023-03-13T07:53:51;12.90;99.90
22838;DHT22;11585;51.450;-0.240;2023-03-13T07:56:19;12.90;99.90
22838;DHT22;11585;51.450;-0.240;2023-03-13T07:58:45;12.90;99.90
22838;DHT22;11585;51.450;-0.240;2023-03-13T08:01:17;12.90;99.90
22838;DHT22;11585;51.450;-0.240;2023-03-13T08:10:27;12.90;99.90
22838;DHT22;11585;51.450;-0.240;2023-03-13T08:15:40;12.90;99.90
22838;DHT22;11585;51.450;-0.240;2023-03-13T08:18:06;12.90;99.90
22838;DHT22;11585;51.450;-0.240;2023-03-13T08:20:32;12.90;99.90
22838;DHT22;11585;51.450;-0.240;2023-03-13T08:26:09;12.90;99.90
22838;DHT22;11585;51.450;-0.240;2023-03-13T08:28:36;12.90;99.90
22838;DHT22;11585;51.450;-0.240;2023-03-13T08:31:21;13.10;99.90
22838;DHT22;11585;51.450;-0.240;2023-03-13T08:33:50;12.90;99.90
22838;DHT22;11585;51.450;-0.240;2023-03-13T08:36:27;12.90;99.90
22838;DHT22;11585;51.450;-0.240;2023-03-13T08:38:56;12.90;99.90
22838;DHT22;11585;51.450;-0.240;2023-03-13T08:41:26;12.90;99.90
22838;DHT22;11585;51.450;-0.240;2023-03-13T08:43:54;12.90;99.90
22838;DHT22;11585;51.450;-0.240;2023-03-13T08:46:20;12.80;99.90
22838;DHT22;11585;51.450;-0.240;2023-03-13T08:48:53;12.90;99.90
22838;DHT22;11585;51.450;-0.240;2023-03-13T08:51:24;12.90;99.90
22838;DHT22;11585;51.450;-0.240;2023-03-13T08:53:53;12.90;99.90
22838;DHT22;11585;51.450;-0.240;2023-03-13T08:56:22;12.90;99.90
22838;DHT22;11585;51.450;-0.240;2023-03-13T08:58:52;12.90;99.90
22838;DHT22;11585;51.450;-0.240;2023-03-13T09:01:20;12.90;99.90
22838;DHT22;11585;51.450;-0.240;2023-03-13T09:03:49;12.90;99.90
22838;DHT22;11585;51.450;-0.240;2023-03-13T09:06:15;13.00;99.90
22838;DHT22;11585;51.450;-0.240;2023-03-13T09:08:41;13.00;99.90
22838;DHT22;11585;51.450;-0.240;2023-03-13T09:11:10;13.00;99.90
22838;DHT22;11585;51.450;-0.240;2023-03-13T09:13:41;13.00;99.90
22838;DHT22;11585;51.450;-0.240;2023-03-13T09:16:09;13.00;99.90
22838;DHT22;11585;51.450;-0.240;2023-03-13T09:18:35;13.00;99.90
22838;DHT22;11585;51.450;-0.240;2023-03-13T09:21:04;13.00;99.90
22838;DHT22;11585;51.450;-0.240;2023-03-13T09:26:34;13.00;99.90
22838;DHT22;11585;51.450;-0.240;2023-03-13T09:29:06;13.00;99.90
22838;DHT22;11585;51.450;-0.240;2023-03-13T09:31:33;13.00;99.90
22838;DHT22;11585;51.450;-0.240;2023-03-13T09:34:19;13.00;99.90
22838;DHT22;11585;51.450;-0.240;2023-03-13T09:36:47;13.00;99.90
22838;DHT22;11585;51.450;-0.240;2023-03-13T09:39:13;13.00;99.90
22838;DHT22;11585;51.450;-0.240;2023-03-13T09:41:42;13.00;99.90
22838;DHT22;11585;51.450;-0.240;2023-03-13T09:44:26;13.00;99.90
22838;DHT22;11585;51.450;-0.240;2023-03-13T09:47:03;13.00;99.90
22838;DHT22;11585;51.450;-0.240;2023-03-13T09:49:38;13.00;99.90
22838;DHT22;11585;51.450;-0.240;2023-03-13T09:52:21;13.10;99.90
22838;DHT22;11585;51.450;-0.240;2023-03-13T09:54:53;13.10;99.90
22838;DHT22;11585;51.450;-0.240;2023-03-13T09:57:23;13.10;99.90
22838;DHT22;11585;51.450;-0.240;2023-03-13T10:00:10;13.10;99.90
22838;DHT22;11585;51.450;-0.240;2023-03-13T10:09:16;13.00;99.90
22838;DHT22;11585;51.450;-0.240;2023-03-13T10:14:29;13.20;99.90
22838;DHT22;11585;51.450;-0.240;2023-03-13T10:17:02;13.20;99.90
22838;DHT22;11585;51.450;-0.240;2023-03-13T10:19:35;13.20;99.90
22838;DHT22;11585;51.450;-0.240;2023-03-13T10:22:07;13.20;99.90
22838;DHT22;11585;51.450;-0.240;2023-03-13T10:24:49;13.20;99.90
22838;DHT22;11585;51.450;-0.240;2023-03-13T10:27:22;13.20;99.90
22838;DHT22;11585;51.450;-0.240;2023-03-13T10:29:48;13.30;99.90
22838;DHT22;11585;51.450;-0.240;2023-03-13T10:32:16;13.20;99.90
22838;DHT22;11585;51.450;-0.240;2023-03-13T10:37:31;13.30;99.90
22838;DHT22;11585;51.450;-0.240;2023-03-13T10:40:20;13.30;99.90
22838;DHT22;11585;51.450;-0.240;2023-03-13T10:42:53;13.30;99.90
22838;DHT22;11585;51.450;-0.240;2023-03-13T10:45:21;13.40;99.90
22838;DHT22;11585;51.450;-0.240;2023-03-13T10:47:54;13.40;99.90
22838;DHT22;11585;51.450;-0.240;2023-03-13T10:50:23;13.40;99.90
22838;DHT22;11585;51.450;-0.240;2023-03-13T10:52:52;13.40;99.90
22838;DHT22;11585;51.450;-0.240;2023-03-13T10:55:21;13.40;99.90
22838;DHT22;11585;51.450;-0.240;2023-03-13T10:57:57;13.40;99.90
22838;DHT22;11585;51.450;-0.240;2023-03-13T11:00:37;13.50;99.90
22838;DHT22;11585;51.450;-0.240;2023-03-13T11:03:23;13.50;99.90
22838;DHT22;11585;51.450;-0.240;2023-03-13T11:05:54;13.50;99.90
22838;DHT22;11585;51.450;-0.240;2023-03-13T11:11:18;14.10;99.90
22838;DHT22;11585;51.450;-0.240;2023-03-13T11:16:49;13.60;99.90
22838;DHT22;11585;51.450;-0.240;2023-03-13T11:19:28;13.60;99.90
22838;DHT22;11585;51.450;-0.240;2023-03-13T11:32:54;13.70;99.90
22838;DHT22;11585;51.450;-0.240;2023-03-13T11:37:59;13.70;99.90
22838;DHT22;11585;51.450;-0.240;2023-03-13T11:40:33;13.80;99.90
22838;DHT22;11585;51.450;-0.240;2023-03-13T11:43:39;13.80;99.90
22838;DHT22;11585;51.450;-0.240;2023-03-13T11:52:09;13.80;99.90
22838;DHT22;11585;51.450;-0.240;2023-03-13T11:57:20;14.00;99.90
22838;DHT22;11585;51.450;-0.240;2023-03-13T12:00:20;13.90;99.90
22838;DHT22;11585;51.450;-0.240;2023-03-13T12:05:41;13.90;99.90
22838;DHT22;11585;51.450;-0.240;2023-03-13T12:08:15;13.90;99.90
22838;DHT22;11585;51.450;-0.240;2023-03-13T12:11:13;13.90;99.90
22838;DHT22;11585;51.450;-0.240;2023-03-13T12:13:58;13.90;99.90
22838;DHT22;11585;51.450;-0.240;2023-03-13T12:16:50;13.90;99.90
22838;DHT22;11585;51.450;-0.240;2023-03-13T12:22:20;13.90;99.90
22838;DHT22;11585;51.450;-0.240;2023-03-13T12:25:19;13.90;99.90
22838;DHT22;11585;51.450;-0.240;2023-03-13T12:27:46;13.90;99.90
22838;DHT22;11585;51.450;-0.240;2023-03-13T12:30:31;13.90;99.90
22838;DHT22;11585;51.450;-0.240;2023-03-13T12:33:12;13.90;99.90
22838;DHT22;11585;51.450;-0.240;2023-03-13T12:35:44;13.90;99.90
22838;DHT22;11585;51.450;-0.240;2023-03-13T12:38:23;13.90;99.90
22838;DHT22;11585;51.450;-0.240;2023-03-13T12:43:22;13.90;99.90
22838;DHT22;11585;51.450;-0.240;2023-03-13T12:59:52;13.80;99.90
22838;DHT22;11585;51.450;-0.240;2023-03-13T13:02:24;13.80;99.90
22838;DHT22;11585;51.450;-0.240;2023-03-13T13:04:53;13.80;99.90
22838;DHT22;11585;51.450;-0.240;2023-03-13T13:07:30;13.80;99.90
22838;DHT22;11585;51.450;-0.240;2023-03-13T13:24:57;13.80;99.90
22838;DHT22;11585;51.450;-0.240;2023-03-13T13:32:55;13.80;99.90
22838;DHT22;11585;51.450;-0.240;2023-03-13T13:35:33;13.80;99.90
22838;DHT22;11585;51.450;-0.240;2023-03-13T13:46:56;13.80;99.90
22838;DHT22;11585;51.450;-0.240;2023-03-13T13:49:29;13.70;99.90
22838;DHT22;11585;51.450;-0.240;2023-03-13T13:57:14;13.80;99.90
22838;DHT22;11585;51.450;-0.240;2023-03-13T13:59:41;13.80;99.90
22838;DHT22;11585;51.450;-0.240;2023-03-13T14:10:24;13.80;99.90
22838;DHT22;11585;51.450;-0.240;2023-03-13T14:12:54;14.00;99.90
22838;DHT22;11585;51.450;-0.240;2023-03-13T14:15:28;13.90;99.90
22838;DHT22;11585;51.450;-0.240;2023-03-13T14:18:10;13.90;99.90
22838;DHT22;11585;51.450;-0.240;2023-03-13T14:20:59;13.90;99.90
22838;DHT22;11585;51.450;-0.240;2023-03-13T14:23:39;13.90;99.90
22838;DHT22;11585;51.450;-0.240;2023-03-13T14:26:37;13.80;99.90
22838;DHT22;11585;51.450;-0.240;2023-03-13T14:29:06;13.90;99.90
22838;DHT22;11585;51.450;-0.240;2023-03-13T14:31:39;13.90;99.90
22838;DHT22;11585;51.450;-0.240;2023-03-13T14:34:26;13.90;99.90
22838;DHT22;11585;51.450;-0.240;2023-03-13T14:36:57;13.90;99.90
22838;DHT22;11585;51.450;-0.240;2023-03-13T14:42:09;13.90;99.90
22838;DHT22;11585;51.450;-0.240;2023-03-13T14:44:55;14.00;99.90
22838;DHT22;11585;51.450;-0.240;2023-03-13T14:47:30;14.00;99.90
22838;DHT22;11585;51.450;-0.240;2023-03-13T14:50:10;14.00;99.90
22838;DHT22;11585;51.450;-0.240;2023-03-13T14:52:47;14.00;99.90
22838;DHT22;11585;51.450;-0.240;2023-03-13T14:58:04;14.00;99.90
22838;DHT22;11585;51.450;-0.240;2023-03-13T15:00:42;14.00;99.90
22838;DHT22;11585;51.450;-0.240;2023-03-13T15:08:22;13.90;99.90
22838;DHT22;11585;51.450;-0.240;2023-03-13T15:10:48;13.40;99.90
22838;DHT22;11585;51.450;-0.240;2023-03-13T15:15:56;13.90;99.90
22838;DHT22;11585;51.450;-0.240;2023-03-13T15:18:23;13.90;99.90
22838;DHT22;11585;51.450;-0.240;2023-03-13T15:20:51;13.90;99.90
22838;DHT22;11585;51.450;-0.240;2023-03-13T15:23:18;13.90;99.90
22838;DHT22;11585;51.450;-0.240;2023-03-13T15:25:44;13.90;99.90
22838;DHT22;11585;51.450;-0.240;2023-03-13T15:28:17;13.90;99.90
22838;DHT22;11585;51.450;-0.240;2023-03-13T15:30:46;13.90;99.90
22838;DHT22;11585;51.450;-0.240;2023-03-13T15:33:32;13.90;99.90
22838;DHT22;11585;51.450;-0.240;2023-03-13T15:35:58;13.90;99.90
22838;DHT22;11585;51.450;-0.240;2023-03-13T15:38:25;13.00;99.90
22838;DHT22;11585;51.450;-0.240;2023-03-13T15:40:52;13.90;99.90
22838;DHT22;11585;51.450;-0.240;2023-03-13T15:43:36;13.90;99.90
22838;DHT22;11585;51.450;-0.240;2023-03-13T15:46:02;13.90;99.90
22838;DHT22;11585;51.450;-0.240;2023-03-13T15:48:28;14.00;99.90
22838;DHT22;11585;51.450;-0.240;2023-03-13T15:51:00;14.80;99.90
22838;DHT22;11585;51.450;-0.240;2023-03-13T15:53:31;13.90;99.90
22838;DHT22;11585;51.450;-0.240;2023-03-13T15:55:59;13.90;99.90
22838;DHT22;11585;51.450;-0.240;2023-03-13T15:58:26;13.90;99.90
22838;DHT22;11585;51.450;-0.240;2023-03-13T16:00:53;13.90;99.90
22838;DHT22;11585;51.450;-0.240;2023-03-13T16:03:24;13.90;99.90
22838;DHT22;11585;51.450;-0.240;2023-03-13T16:05:51;13.90;99.90
22838;DHT22;11585;51.450;-0.240;2023-03-13T16:08:23;13.90;99.90
22838;DHT22;11585;51.450;-0.240;2023-03-13T16:10:50;13.80;99.90
22838;DHT22;11585;51.450;-0.240;2023-03-13T16:13:16;14.00;99.90
22838;DHT22;11585;51.450;-0.240;2023-03-13T16:15:43;13.90;99.90
22838;DHT22;11585;51.450;-0.240;2023-03-13T16:18:17;13.90;99.90
22838;DHT22;11585;51.450;-0.240;2023-03-13T16:20:44;13.90;99.90
22838;DHT22;11585;51.450;-0.240;2023-03-13T16:23:11;13.90;99.90
22838;DHT22;11585;51.450;-0.240;2023-03-13T16:25:37;13.90;99.90
22838;DHT22;11585;51.450;-0.240;2023-03-13T16:28:03;13.90;99.90
22838;DHT22;11585;51.450;-0.240;2023-03-13T16:30:31;14.00;99.90
22838;DHT22;11585;51.450;-0.240;2023-03-13T16:35:46;13.90;99.90
22838;DHT22;11585;51.450;-0.240;2023-03-13T16:38:11;13.90;99.90
22838;DHT22;11585;51.450;-0.240;2023-03-13T16:40:37;14.00;99.90
22838;DHT22;11585;51.450;-0.240;2023-03-13T16:43:03;13.90;99.90
22838;DHT22;11585;51.450;-0.240;2023-03-13T16:45:28;14.00;99.90
22838;DHT22;11585;51.450;-0.240;2023-03-13T16:47:54;13.90;99.90
22838;DHT22;11585;51.450;-0.240;2023-03-13T16:50:34;13.90;99.90
22838;DHT22;11585;51.450;-0.240;2023-03-13T16:56:34;13.90;99.90
22838;DHT22;11585;51.450;-0.240;2023-03-13T16:59:03;14.00;99.90
22838;DHT22;11585;51.450;-0.240;2023-03-13T17:01:29;13.90;99.90
22838;DHT22;11585;51.450;-0.240;2023-03-13T17:03:56;13.90;99.90
22838;DHT22;11585;51.450;-0.240;2023-03-13T17:06:28;13.90;99.90
22838;DHT22;11585;51.450;-0.240;2023-03-13T17:08:54;13.90;99.90
22838;DHT22;11585;51.450;-0.240;2023-03-13T17:11:21;13.90;99.90
22838;DHT22;11585;51.450;-0.240;2023-03-13T17:13:50;13.90;99.90
22838;DHT22;11585;51.450;-0.240;2023-03-13T17:16:28;14.00;99.90
22838;DHT22;11585;51.450;-0.240;2023-03-13T17:18:55;13.90;99.90
22838;DHT22;11585;51.450;-0.240;2023-03-13T17:21:23;13.90;99.90
22838;DHT22;11585;51.450;-0.240;2023-03-13T17:23:51;13.90;99.90
22838;DHT22;11585;51.450;-0.240;2023-03-13T17:26:26;14.00;99.90
22838;DHT22;11585;51.450;-0.240;2023-03-13T17:28:54;13.90;99.90
22838;DHT22;11585;51.450;-0.240;2023-03-13T17:31:22;13.90;99.90
22838;DHT22;11585;51.450;-0.240;2023-03-13T17:33:48;13.90;99.90
22838;DHT22;11585;51.450;-0.240;2023-03-13T17:36:16;13.90;99.90
22838;DHT22;11585;51.450;-0.240;2023-03-13T17:38:43;13.90;99.90
22838;DHT22;11585;51.450;-0.240;2023-03-13T17:41:13;13.80;99.90
22838;DHT22;11585;51.450;-0.240;2023-03-13T17:43:58;13.80;99.90
22838;DHT22;11585;51.450;-0.240;2023-03-13T17:46:24;13.80;99.90
22838;DHT22;11585;51.450;-0.240;2023-03-13T17:48:55;13.80;99.90
22838;DHT22;11585;51.450;-0.240;2023-03-13T17:51:25;13.80;99.90
22838;DHT22;11585;51.450;-0.240;2023-03-13T17:53:52;14.90;99.90
22838;DHT22;11585;51.450;-0.240;2023-03-13T17:56:23;13.80;99.90
22838;DHT22;11585;51.450;-0.240;2023-03-13T17:58:54;13.70;99.90
22838;DHT22;11585;51.450;-0.240;2023-03-13T18:01:23;13.70;99.90
22838;DHT22;11585;51.450;-0.240;2023-03-13T18:03:49;13.70;99.90
22838;DHT22;11585;51.450;-0.240;2023-03-13T18:06:27;13.70;99.90
22838;DHT22;11585;51.450;-0.240;2023-03-13T18:08:55;13.60;99.90
22838;DHT22;11585;51.450;-0.240;2023-03-13T18:11:23;13.60;99.90
22838;DHT22;11585;51.450;-0.240;2023-03-13T18:13:51;13.60;99.90
22838;DHT22;11585;51.450;-0.240;2023-03-13T18:19:23;13.50;99.90
22838;DHT22;11585;51.450;-0.240;2023-03-13T18:21:52;13.50;99.90
22838;DHT22;11585;51.450;-0.240;2023-03-13T18:24:20;13.50;99.90
22838;DHT22;11585;51.450;-0.240;2023-03-13T18:26:46;13.40;99.90
22838;DHT22;11585;51.450;-0.240;2023-03-13T18:29:14;13.40;99.90
22838;DHT22;11585;51.450;-0.240;2023-03-13T18:31:40;13.40;99.90
22838;DHT22;11585;51.450;-0.240;2023-03-13T18:34:09;13.40;99.90
22838;DHT22;11585;51.450;-0.240;2023-03-13T18:36:35;13.40;99.90
22838;DHT22;11585;51.450;-0.240;2023-03-13T18:39:00;13.30;99.90
22838;DHT22;11585;51.450;-0.240;2023-03-13T18:41:26;13.30;99.90
22838;DHT22;11585;51.450;-0.240;2023-03-13T18:44:10;13.30;99.90
22838;DHT22;11585;51.450;-0.240;2023-03-13T18:46:43;13.30;99.90
22838;DHT22;11585;51.450;-0.240;2023-03-13T18:49:15;13.20;99.90
22838;DHT22;11585;51.450;-0.240;2023-03-13T18:51:46;13.20;99.90
22838;DHT22;11585;51.450;-0.240;2023-03-13T18:54:13;13.10;99.90
22838;DHT22;11585;51.450;-0.240;2023-03-13T18:56:39;13.20;99.90